Nikolas — 3FIJ — position and weather

sailwx.info

Track history (hours):
 
Tides and Currents Weather Stations Pressure Air Temp Water Temp Dewpoint Dewpoint Depression Visibility Wind Speed Wind Dir Waves Ship Positions

Nikolas

Last reported at 2018-Feb-17 05:26 UTC. Time now 2018-Feb-20 09:59 UTC.
Position N 10°18' W 075°48'.

Length 207 m; draft 9.5 m.

Type: Cargo ship. MMSI: 357388000.

Date/timePositionNaut miles runAvg speedWind from/ knotsBaromVisibWave heightAir tempDewpointWater temp
2018-Feb-17 05:26N 10°18' W 075°48'245 8.1
2018-Feb-15 23:17N 09°29' W 079°51'3 8.4
2018-Feb-15 22:56N 09°27' W 079°53'4 8.5
2018-Feb-15 22:30N 09°24' W 079°55'3 6.3
2018-Feb-15 22:00N 09°21' W 079°55'0 0.5
2018-Feb-15 21:30N 09°21' W 079°55'0 0.0
2018-Feb-15 21:00N 09°21' W 079°55'0 0.0
2018-Feb-15 20:30N 09°21' W 079°55'0 0.0
2018-Feb-15 20:00N 09°21' W 079°55'0 0.0
2018-Feb-15 19:30N 09°21' W 079°55'0 0.0
2018-Feb-15 19:00N 09°21' W 079°55'0 0.0
2018-Feb-15 18:30N 09°21' W 079°55'0 0.0
2018-Feb-15 18:00N 09°21' W 079°55'0 0.0
2018-Feb-15 17:30N 09°21' W 079°55'0 0.0
2018-Feb-15 17:00N 09°21' W 079°55'0 0.0
2018-Feb-15 16:30N 09°21' W 079°55'0 0.0
2018-Feb-15 15:58N 09°21' W 079°55'0 0.0
2018-Feb-15 15:30N 09°21' W 079°55'0 0.0
2018-Feb-15 15:00N 09°21' W 079°55'0 0.0
2018-Feb-15 14:29N 09°21' W 079°55'0 0.0
2018-Feb-15 14:00N 09°21' W 079°55'0 0.0
2018-Feb-15 13:28N 09°21' W 079°55'0 0.0
2018-Feb-15 13:00N 09°21' W 079°55'0 0.1
2018-Feb-15 12:31N 09°21' W 079°55'1 1.9
2018-Feb-15 12:00N 09°22' W 079°55'4 7.5
2018-Feb-15 11:31N 09°26' W 079°55'4 6.8
2018-Feb-15 10:55N 09°29' W 079°52'1 1.9
2018-Feb-15 10:25N 09°29' W 079°53'1 1.6
2018-Feb-15 09:55N 09°30' W 079°52'1 1.9
2018-Feb-15 09:30N 09°30' W 079°52'1 0.3
2018-Feb-15 07:49N 09°30' W 079°51'0 0.4
2018-Feb-15 07:30N 09°30' W 079°51'4 8.9
2018-Feb-15 07:01N 09°26' W 079°53'4 8.0
2018-Feb-15 06:30N 09°22' W 079°54'1 1.6
2018-Feb-15 06:00N 09°22' W 079°53'0 0.0
2018-Feb-15 05:30N 09°22' W 079°53'0 0.0
2018-Feb-15 05:00N 09°22' W 079°53'0 0.0
2018-Feb-15 04:30N 09°22' W 079°53'0 0.0
2018-Feb-15 04:00N 09°22' W 079°53'0 0.0
2018-Feb-15 03:30N 09°22' W 079°53'0 0.0
2018-Feb-15 03:00N 09°22' W 079°53'0 0.0
2018-Feb-15 02:30N 09°22' W 079°53'0 0.0
2018-Feb-15 02:00N 09°22' W 079°53'0 0.0
2018-Feb-15 01:30N 09°22' W 079°53'0 0.0
2018-Feb-15 01:00N 09°22' W 079°53'0 0.0
2018-Feb-15 00:30N 09°22' W 079°53'0 0.0
2018-Feb-15 00:00N 09°22' W 079°53'0 0.0
2018-Feb-14 23:27N 09°22' W 079°53'0 0.0
2018-Feb-14 23:00N 09°22' W 079°53'0 0.0
2018-Feb-14 22:30N 09°22' W 079°53'1 1.3
2018-Feb-14 22:01N 09°22' W 079°54'4 6.9
2018-Feb-14 21:29N 09°26' W 079°54'2 3.8
2018-Feb-14 21:00N 09°27' W 079°53'2 3.3
2018-Feb-14 20:30N 09°29' W 079°53'4 8.6
2018-Feb-14 20:00N 09°33' W 079°52'510.3
2018-Feb-14 19:30N 09°38' W 079°50'  
Track history (hours):
 
Tides and Currents Weather Stations Pressure Air Temp Water Temp Dewpoint Dewpoint Depression Visibility Wind Speed Wind Dir Waves Ship Positions

Nikolas

Last reported at 2018-Feb-17 05:26 UTC. Time now 2018-Feb-20 09:59 UTC.
Position N 10°18' W 075°48'.

Length 207 m; draft 9.5 m.

Type: Cargo ship. MMSI: 357388000.

Date/timePositionNaut miles runAvg speedWind from/ knotsBaromVisibWave heightAir tempDewpointWater temp
2018-Feb-17 05:26N 10°18' W 075°48'245 8.1
2018-Feb-15 23:17N 09°29' W 079°51'3 8.4
2018-Feb-15 22:56N 09°27' W 079°53'4 8.5
2018-Feb-15 22:30N 09°24' W 079°55'3 6.3
2018-Feb-15 22:00N 09°21' W 079°55'0 0.5
2018-Feb-15 21:30N 09°21' W 079°55'0 0.0
2018-Feb-15 21:00N 09°21' W 079°55'0 0.0
2018-Feb-15 20:30N 09°21' W 079°55'0 0.0
2018-Feb-15 20:00N 09°21' W 079°55'0 0.0
2018-Feb-15 19:30N 09°21' W 079°55'0 0.0
2018-Feb-15 19:00N 09°21' W 079°55'0 0.0
2018-Feb-15 18:30N 09°21' W 079°55'0 0.0
2018-Feb-15 18:00N 09°21' W 079°55'0 0.0
2018-Feb-15 17:30N 09°21' W 079°55'0 0.0
2018-Feb-15 17:00N 09°21' W 079°55'0 0.0
2018-Feb-15 16:30N 09°21' W 079°55'0 0.0
2018-Feb-15 15:58N 09°21' W 079°55'0 0.0
2018-Feb-15 15:30N 09°21' W 079°55'0 0.0
2018-Feb-15 15:00N 09°21' W 079°55'0 0.0
2018-Feb-15 14:29N 09°21' W 079°55'0 0.0
2018-Feb-15 14:00N 09°21' W 079°55'0 0.0
2018-Feb-15 13:28N 09°21' W 079°55'0 0.0
2018-Feb-15 13:00N 09°21' W 079°55'0 0.1
2018-Feb-15 12:31N 09°21' W 079°55'1 1.9
2018-Feb-15 12:00N 09°22' W 079°55'4 7.5
2018-Feb-15 11:31N 09°26' W 079°55'4 6.8
2018-Feb-15 10:55N 09°29' W 079°52'1 1.9
2018-Feb-15 10:25N 09°29' W 079°53'1 1.6
2018-Feb-15 09:55N 09°30' W 079°52'1 1.9
2018-Feb-15 09:30N 09°30' W 079°52'1 0.3
2018-Feb-15 07:49N 09°30' W 079°51'0 0.4
2018-Feb-15 07:30N 09°30' W 079°51'4 8.9
2018-Feb-15 07:01N 09°26' W 079°53'4 8.0
2018-Feb-15 06:30N 09°22' W 079°54'1 1.6
2018-Feb-15 06:00N 09°22' W 079°53'0 0.0
2018-Feb-15 05:30N 09°22' W 079°53'0 0.0
2018-Feb-15 05:00N 09°22' W 079°53'0 0.0
2018-Feb-15 04:30N 09°22' W 079°53'0 0.0
2018-Feb-15 04:00N 09°22' W 079°53'0 0.0
2018-Feb-15 03:30N 09°22' W 079°53'0 0.0
2018-Feb-15 03:00N 09°22' W 079°53'0 0.0
2018-Feb-15 02:30N 09°22' W 079°53'0 0.0
2018-Feb-15 02:00N 09°22' W 079°53'0 0.0
2018-Feb-15 01:30N 09°22' W 079°53'0 0.0
2018-Feb-15 01:00N 09°22' W 079°53'0 0.0
2018-Feb-15 00:30N 09°22' W 079°53'0 0.0
2018-Feb-15 00:00N 09°22' W 079°53'0 0.0
2018-Feb-14 23:27N 09°22' W 079°53'0 0.0
2018-Feb-14 23:00N 09°22' W 079°53'0 0.0
2018-Feb-14 22:30N 09°22' W 079°53'1 1.3
2018-Feb-14 22:01N 09°22' W 079°54'4 6.9
2018-Feb-14 21:29N 09°26' W 079°54'2 3.8
2018-Feb-14 21:00N 09°27' W 079°53'2 3.3
2018-Feb-14 20:30N 09°29' W 079°53'4 8.6
2018-Feb-14 20:00N 09°33' W 079°52'510.3
2018-Feb-14 19:30N 09°38' W 079°50'  

Dump ship's entire track history